sensor_id;sensor_type;location;lat;lon;timestamp;P1;durP1;ratioP1;P2;durP2;ratioP2
53411;SDS011;39307;52.870;13.660;2023-02-13T00:01:30;6.30;;;3.22;;
53411;SDS011;39307;52.870;13.660;2023-02-13T00:03:56;5.80;;;3.20;;
53411;SDS011;39307;52.870;13.660;2023-02-13T00:06:23;6.60;;;3.20;;
53411;SDS011;39307;52.870;13.660;2023-02-13T00:08:50;6.03;;;3.50;;
53411;SDS011;39307;52.870;13.660;2023-02-13T00:11:17;6.40;;;3.58;;
53411;SDS011;39307;52.870;13.660;2023-02-13T00:13:43;5.97;;;3.30;;
53411;SDS011;39307;52.870;13.660;2023-02-13T00:16:09;7.23;;;3.50;;
53411;SDS011;39307;52.870;13.660;2023-02-13T00:18:36;6.80;;;3.33;;
53411;SDS011;39307;52.870;13.660;2023-02-13T00:21:06;6.10;;;3.43;;
53411;SDS011;39307;52.870;13.660;2023-02-13T00:23:37;6.30;;;3.30;;
53411;SDS011;39307;52.870;13.660;2023-02-13T00:26:05;6.43;;;3.63;;
53411;SDS011;39307;52.870;13.660;2023-02-13T00:28:32;5.55;;;3.10;;
53411;SDS011;39307;52.870;13.660;2023-02-13T00:31:03;6.28;;;3.20;;
53411;SDS011;39307;52.870;13.660;2023-02-13T00:33:31;7.20;;;3.40;;
53411;SDS011;39307;52.870;13.660;2023-02-13T00:36:04;6.10;;;3.08;;
53411;SDS011;39307;52.870;13.660;2023-02-13T00:38:31;6.00;;;3.30;;
53411;SDS011;39307;52.870;13.660;2023-02-13T00:40:58;6.80;;;3.45;;
53411;SDS011;39307;52.870;13.660;2023-02-13T00:43:24;5.82;;;3.38;;
53411;SDS011;39307;52.870;13.660;2023-02-13T00:45:51;6.32;;;3.22;;
53411;SDS011;39307;52.870;13.660;2023-02-13T00:48:17;5.40;;;2.97;;
53411;SDS011;39307;52.870;13.660;2023-02-13T00:50:43;6.53;;;3.10;;
53411;SDS011;39307;52.870;13.660;2023-02-13T00:53:11;5.75;;;2.92;;
53411;SDS011;39307;52.870;13.660;2023-02-13T00:55:37;5.90;;;3.20;;
53411;SDS011;39307;52.870;13.660;2023-02-13T00:58:03;6.13;;;3.17;;
53411;SDS011;39307;52.870;13.660;2023-02-13T01:00:30;6.90;;;3.90;;
53411;SDS011;39307;52.870;13.660;2023-02-13T01:02:56;6.32;;;3.10;;
53411;SDS011;39307;52.870;13.660;2023-02-13T01:05:22;5.90;;;3.10;;
53411;SDS011;39307;52.870;13.660;2023-02-13T01:07:49;6.28;;;3.15;;
53411;SDS011;39307;52.870;13.660;2023-02-13T01:10:16;6.20;;;3.30;;
53411;SDS011;39307;52.870;13.660;2023-02-13T01:12:43;6.35;;;3.47;;
53411;SDS011;39307;52.870;13.660;2023-02-13T01:15:09;5.97;;;3.20;;
53411;SDS011;39307;52.870;13.660;2023-02-13T01:17:35;6.57;;;3.28;;
53411;SDS011;39307;52.870;13.660;2023-02-13T01:20:01;6.90;;;3.53;;
53411;SDS011;39307;52.870;13.660;2023-02-13T01:22:28;6.55;;;3.40;;
53411;SDS011;39307;52.870;13.660;2023-02-13T01:24:54;5.80;;;3.40;;
53411;SDS011;39307;52.870;13.660;2023-02-13T01:27:20;5.95;;;3.40;;
53411;SDS011;39307;52.870;13.660;2023-02-13T01:29:47;6.77;;;3.73;;
53411;SDS011;39307;52.870;13.660;2023-02-13T01:32:14;7.38;;;3.88;;
53411;SDS011;39307;52.870;13.660;2023-02-13T01:34:40;6.10;;;3.40;;
53411;SDS011;39307;52.870;13.660;2023-02-13T01:37:07;7.20;;;3.67;;
53411;SDS011;39307;52.870;13.660;2023-02-13T01:39:33;6.38;;;3.47;;
53411;SDS011;39307;52.870;13.660;2023-02-13T01:41:59;6.05;;;3.70;;
53411;SDS011;39307;52.870;13.660;2023-02-13T01:44:44;6.95;;;3.72;;
53411;SDS011;39307;52.870;13.660;2023-02-13T01:47:11;7.83;;;3.90;;
53411;SDS011;39307;52.870;13.660;2023-02-13T01:49:42;6.60;;;3.93;;
53411;SDS011;39307;52.870;13.660;2023-02-13T01:52:11;7.25;;;3.95;;
53411;SDS011;39307;52.870;13.660;2023-02-13T01:54:37;6.50;;;3.65;;
53411;SDS011;39307;52.870;13.660;2023-02-13T01:57:09;6.60;;;3.70;;
53411;SDS011;39307;52.870;13.660;2023-02-13T02:00:06;6.97;;;3.70;;
53411;SDS011;39307;52.870;13.660;2023-02-13T02:02:36;6.40;;;3.80;;
53411;SDS011;39307;52.870;13.660;2023-02-13T02:05:06;7.22;;;3.67;;
53411;SDS011;39307;52.870;13.660;2023-02-13T02:07:35;6.20;;;3.47;;
53411;SDS011;39307;52.870;13.660;2023-02-13T02:10:08;6.80;;;3.33;;
53411;SDS011;39307;52.870;13.660;2023-02-13T02:12:46;5.32;;;2.92;;
53411;SDS011;39307;52.870;13.660;2023-02-13T02:15:35;6.68;;;3.95;;
53411;SDS011;39307;52.870;13.660;2023-02-13T02:18:01;6.53;;;3.55;;
53411;SDS011;39307;52.870;13.660;2023-02-13T02:20:41;6.40;;;3.38;;
53411;SDS011;39307;52.870;13.660;2023-02-13T02:32:56;7.57;;;3.45;;
53411;SDS011;39307;52.870;13.660;2023-02-13T02:35:30;6.70;;;3.97;;
53411;SDS011;39307;52.870;13.660;2023-02-13T02:41:06;7.22;;;3.80;;
53411;SDS011;39307;52.870;13.660;2023-02-13T02:43:51;6.33;;;3.30;;
53411;SDS011;39307;52.870;13.660;2023-02-13T02:46:32;6.30;;;3.75;;
53411;SDS011;39307;52.870;13.660;2023-02-13T02:49:10;6.25;;;3.83;;
53411;SDS011;39307;52.870;13.660;2023-02-13T02:51:55;8.03;;;4.20;;
53411;SDS011;39307;52.870;13.660;2023-02-13T02:54:44;8.20;;;4.45;;
53411;SDS011;39307;52.870;13.660;2023-02-13T02:57:18;7.55;;;4.10;;
53411;SDS011;39307;52.870;13.660;2023-02-13T02:59:48;7.50;;;4.17;;
53411;SDS011;39307;52.870;13.660;2023-02-13T03:02:17;8.95;;;4.43;;
53411;SDS011;39307;52.870;13.660;2023-02-13T03:04:47;8.43;;;4.35;;
53411;SDS011;39307;52.870;13.660;2023-02-13T03:07:17;8.07;;;4.22;;
53411;SDS011;39307;52.870;13.660;2023-02-13T03:09:50;7.95;;;4.50;;
53411;SDS011;39307;52.870;13.660;2023-02-13T03:12:21;8.40;;;4.37;;
53411;SDS011;39307;52.870;13.660;2023-02-13T03:14:51;7.53;;;3.88;;
53411;SDS011;39307;52.870;13.660;2023-02-13T03:17:17;6.85;;;4.07;;
53411;SDS011;39307;52.870;13.660;2023-02-13T03:19:55;7.07;;;4.07;;
53411;SDS011;39307;52.870;13.660;2023-02-13T03:22:35;7.20;;;4.20;;
53411;SDS011;39307;52.870;13.660;2023-02-13T03:28:18;8.00;;;4.03;;
53411;SDS011;39307;52.870;13.660;2023-02-13T03:31:07;7.00;;;4.45;;
53411;SDS011;39307;52.870;13.660;2023-02-13T03:33:48;7.47;;;4.53;;
53411;SDS011;39307;52.870;13.660;2023-02-13T03:36:32;7.10;;;4.10;;
53411;SDS011;39307;52.870;13.660;2023-02-13T03:47:07;7.80;;;4.00;;
53411;SDS011;39307;52.870;13.660;2023-02-13T03:49:37;5.73;;;3.70;;
53411;SDS011;39307;52.870;13.660;2023-02-13T03:54:55;6.28;;;3.88;;
53411;SDS011;39307;52.870;13.660;2023-02-13T03:57:26;6.13;;;3.50;;
53411;SDS011;39307;52.870;13.660;2023-02-13T03:59:54;6.20;;;3.40;;
53411;SDS011;39307;52.870;13.660;2023-02-13T04:02:24;5.70;;;3.10;;
53411;SDS011;39307;52.870;13.660;2023-02-13T04:05:06;6.53;;;3.58;;
53411;SDS011;39307;52.870;13.660;2023-02-13T04:07:38;5.72;;;2.92;;
53411;SDS011;39307;52.870;13.660;2023-02-13T04:10:08;5.13;;;3.35;;
53411;SDS011;39307;52.870;13.660;2023-02-13T04:12:40;5.10;;;3.23;;
53411;SDS011;39307;52.870;13.660;2023-02-13T04:21:05;6.13;;;3.53;;
53411;SDS011;39307;52.870;13.660;2023-02-13T04:23:32;8.18;;;3.67;;
53411;SDS011;39307;52.870;13.660;2023-02-13T04:25:59;6.45;;;3.70;;
53411;SDS011;39307;52.870;13.660;2023-02-13T04:28:31;5.68;;;3.28;;
53411;SDS011;39307;52.870;13.660;2023-02-13T04:30:57;6.00;;;3.60;;
53411;SDS011;39307;52.870;13.660;2023-02-13T04:33:23;7.40;;;3.72;;
53411;SDS011;39307;52.870;13.660;2023-02-13T04:35:49;6.78;;;3.92;;
53411;SDS011;39307;52.870;13.660;2023-02-13T04:38:16;5.75;;;3.70;;
53411;SDS011;39307;52.870;13.660;2023-02-13T04:40:42;6.10;;;3.65;;
53411;SDS011;39307;52.870;13.660;2023-02-13T04:43:08;5.97;;;3.63;;
53411;SDS011;39307;52.870;13.660;2023-02-13T04:45:34;6.20;;;3.80;;
53411;SDS011;39307;52.870;13.660;2023-02-13T04:48:00;5.65;;;3.78;;
53411;SDS011;39307;52.870;13.660;2023-02-13T04:50:26;6.20;;;3.67;;
53411;SDS011;39307;52.870;13.660;2023-02-13T04:52:53;6.88;;;3.72;;
53411;SDS011;39307;52.870;13.660;2023-02-13T04:55:21;6.30;;;3.63;;
53411;SDS011;39307;52.870;13.660;2023-02-13T04:57:47;5.53;;;3.70;;
53411;SDS011;39307;52.870;13.660;2023-02-13T05:00:17;5.40;;;3.40;;
53411;SDS011;39307;52.870;13.660;2023-02-13T05:02:47;6.15;;;4.07;;
53411;SDS011;39307;52.870;13.660;2023-02-13T05:05:13;7.15;;;4.07;;
53411;SDS011;39307;52.870;13.660;2023-02-13T05:07:40;6.70;;;3.78;;
53411;SDS011;39307;52.870;13.660;2023-02-13T05:10:07;6.23;;;3.97;;
53411;SDS011;39307;52.870;13.660;2023-02-13T05:12:34;6.15;;;3.63;;
53411;SDS011;39307;52.870;13.660;2023-02-13T05:15:00;6.75;;;3.92;;
53411;SDS011;39307;52.870;13.660;2023-02-13T05:17:26;6.72;;;3.60;;
53411;SDS011;39307;52.870;13.660;2023-02-13T05:19:52;6.32;;;3.85;;
53411;SDS011;39307;52.870;13.660;2023-02-13T05:22:18;5.55;;;3.60;;
53411;SDS011;39307;52.870;13.660;2023-02-13T05:24:44;6.50;;;3.80;;
53411;SDS011;39307;52.870;13.660;2023-02-13T05:27:11;6.00;;;4.00;;
53411;SDS011;39307;52.870;13.660;2023-02-13T05:29:37;7.32;;;4.13;;
53411;SDS011;39307;52.870;13.660;2023-02-13T05:32:03;6.20;;;3.97;;
53411;SDS011;39307;52.870;13.660;2023-02-13T05:34:29;6.40;;;4.32;;
53411;SDS011;39307;52.870;13.660;2023-02-13T05:36:55;6.10;;;4.07;;
53411;SDS011;39307;52.870;13.660;2023-02-13T05:39:22;6.75;;;4.32;;
53411;SDS011;39307;52.870;13.660;2023-02-13T05:41:48;6.43;;;3.80;;
53411;SDS011;39307;52.870;13.660;2023-02-13T05:44:14;6.82;;;4.03;;
53411;SDS011;39307;52.870;13.660;2023-02-13T05:46:41;7.65;;;3.85;;
53411;SDS011;39307;52.870;13.660;2023-02-13T05:49:08;6.37;;;4.10;;
53411;SDS011;39307;52.870;13.660;2023-02-13T05:51:35;6.90;;;4.32;;
53411;SDS011;39307;52.870;13.660;2023-02-13T05:54:01;15.32;;;9.98;;
53411;SDS011;39307;52.870;13.660;2023-02-13T05:56:28;13.40;;;9.02;;
53411;SDS011;39307;52.870;13.660;2023-02-13T05:58:54;9.63;;;6.30;;
53411;SDS011;39307;52.870;13.660;2023-02-13T06:01:21;7.05;;;4.47;;
53411;SDS011;39307;52.870;13.660;2023-02-13T06:03:48;7.70;;;4.95;;
53411;SDS011;39307;52.870;13.660;2023-02-13T06:06:14;7.68;;;4.30;;
53411;SDS011;39307;52.870;13.660;2023-02-13T06:08:41;6.87;;;4.47;;
53411;SDS011;39307;52.870;13.660;2023-02-13T06:11:08;6.80;;;4.28;;
53411;SDS011;39307;52.870;13.660;2023-02-13T06:13:34;6.63;;;4.53;;
53411;SDS011;39307;52.870;13.660;2023-02-13T06:16:00;7.00;;;4.43;;
53411;SDS011;39307;52.870;13.660;2023-02-13T06:18:27;8.05;;;4.43;;
53411;SDS011;39307;52.870;13.660;2023-02-13T06:20:53;6.55;;;4.50;;
53411;SDS011;39307;52.870;13.660;2023-02-13T06:23:19;7.05;;;4.57;;
53411;SDS011;39307;52.870;13.660;2023-02-13T06:25:45;7.47;;;5.18;;
53411;SDS011;39307;52.870;13.660;2023-02-13T06:28:11;7.85;;;4.90;;
53411;SDS011;39307;52.870;13.660;2023-02-13T06:30:37;8.15;;;5.13;;
53411;SDS011;39307;52.870;13.660;2023-02-13T06:33:03;7.43;;;5.15;;
53411;SDS011;39307;52.870;13.660;2023-02-13T06:35:29;8.17;;;5.10;;
53411;SDS011;39307;52.870;13.660;2023-02-13T06:37:56;8.77;;;6.45;;
53411;SDS011;39307;52.870;13.660;2023-02-13T06:40:22;10.32;;;7.75;;
53411;SDS011;39307;52.870;13.660;2023-02-13T06:42:48;9.52;;;7.63;;
53411;SDS011;39307;52.870;13.660;2023-02-13T06:45:14;10.43;;;7.95;;
53411;SDS011;39307;52.870;13.660;2023-02-13T06:47:41;9.50;;;7.70;;
53411;SDS011;39307;52.870;13.660;2023-02-13T06:50:08;10.57;;;8.40;;
53411;SDS011;39307;52.870;13.660;2023-02-13T06:52:35;11.75;;;8.38;;
53411;SDS011;39307;52.870;13.660;2023-02-13T06:55:01;10.68;;;8.57;;
53411;SDS011;39307;52.870;13.660;2023-02-13T06:57:28;14.07;;;9.00;;
53411;SDS011;39307;52.870;13.660;2023-02-13T06:59:54;11.05;;;9.00;;
53411;SDS011;39307;52.870;13.660;2023-02-13T07:02:20;10.77;;;8.55;;
53411;SDS011;39307;52.870;13.660;2023-02-13T07:04:46;11.10;;;8.07;;
53411;SDS011;39307;52.870;13.660;2023-02-13T07:07:12;11.43;;;7.78;;
53411;SDS011;39307;52.870;13.660;2023-02-13T07:09:39;10.60;;;7.30;;
53411;SDS011;39307;52.870;13.660;2023-02-13T07:12:05;9.90;;;6.65;;
53411;SDS011;39307;52.870;13.660;2023-02-13T07:14:31;9.02;;;6.35;;
53411;SDS011;39307;52.870;13.660;2023-02-13T07:16:58;9.15;;;6.70;;
53411;SDS011;39307;52.870;13.660;2023-02-13T07:19:24;8.55;;;6.32;;
53411;SDS011;39307;52.870;13.660;2023-02-13T07:21:50;9.88;;;6.82;;
53411;SDS011;39307;52.870;13.660;2023-02-13T07:24:16;9.35;;;6.50;;
53411;SDS011;39307;52.870;13.660;2023-02-13T07:26:42;8.10;;;6.07;;
53411;SDS011;39307;52.870;13.660;2023-02-13T07:29:08;9.57;;;6.47;;
53411;SDS011;39307;52.870;13.660;2023-02-13T07:31:35;8.73;;;5.97;;
53411;SDS011;39307;52.870;13.660;2023-02-13T07:34:01;7.60;;;5.65;;
53411;SDS011;39307;52.870;13.660;2023-02-13T07:36:27;8.40;;;5.95;;
53411;SDS011;39307;52.870;13.660;2023-02-13T07:38:54;8.57;;;6.05;;
53411;SDS011;39307;52.870;13.660;2023-02-13T07:41:21;8.13;;;5.63;;
53411;SDS011;39307;52.870;13.660;2023-02-13T07:43:47;7.32;;;5.30;;
53411;SDS011;39307;52.870;13.660;2023-02-13T07:46:13;8.23;;;5.20;;
53411;SDS011;39307;52.870;13.660;2023-02-13T07:48:39;8.07;;;5.27;;
53411;SDS011;39307;52.870;13.660;2023-02-13T07:51:05;9.10;;;5.10;;
53411;SDS011;39307;52.870;13.660;2023-02-13T07:53:32;6.70;;;4.78;;
53411;SDS011;39307;52.870;13.660;2023-02-13T07:55:58;8.20;;;5.45;;
53411;SDS011;39307;52.870;13.660;2023-02-13T07:58:24;10.20;;;5.78;;
53411;SDS011;39307;52.870;13.660;2023-02-13T08:00:50;10.07;;;5.68;;
53411;SDS011;39307;52.870;13.660;2023-02-13T08:03:16;7.72;;;5.40;;
53411;SDS011;39307;52.870;13.660;2023-02-13T08:05:42;7.80;;;5.60;;
53411;SDS011;39307;52.870;13.660;2023-02-13T08:08:13;8.38;;;5.55;;
53411;SDS011;39307;52.870;13.660;2023-02-13T08:10:39;7.18;;;5.43;;
53411;SDS011;39307;52.870;13.660;2023-02-13T08:13:06;8.85;;;6.20;;
53411;SDS011;39307;52.870;13.660;2023-02-13T08:15:34;8.38;;;6.07;;
53411;SDS011;39307;52.870;13.660;2023-02-13T08:18:00;9.30;;;5.90;;
53411;SDS011;39307;52.870;13.660;2023-02-13T08:20:27;9.07;;;5.80;;
53411;SDS011;39307;52.870;13.660;2023-02-13T08:22:53;8.10;;;5.82;;
53411;SDS011;39307;52.870;13.660;2023-02-13T08:25:19;8.50;;;5.43;;
53411;SDS011;39307;52.870;13.660;2023-02-13T08:27:45;8.20;;;5.75;;
53411;SDS011;39307;52.870;13.660;2023-02-13T08:30:12;9.80;;;6.40;;
53411;SDS011;39307;52.870;13.660;2023-02-13T08:32:38;9.93;;;6.00;;
53411;SDS011;39307;52.870;13.660;2023-02-13T08:35:04;8.55;;;6.13;;
53411;SDS011;39307;52.870;13.660;2023-02-13T08:37:31;9.05;;;6.30;;
53411;SDS011;39307;52.870;13.660;2023-02-13T08:39:57;8.73;;;5.93;;
53411;SDS011;39307;52.870;13.660;2023-02-13T08:42:23;8.87;;;6.10;;
53411;SDS011;39307;52.870;13.660;2023-02-13T08:44:49;9.85;;;6.35;;
53411;SDS011;39307;52.870;13.660;2023-02-13T08:47:16;9.25;;;6.35;;
53411;SDS011;39307;52.870;13.660;2023-02-13T08:49:42;9.20;;;6.10;;
53411;SDS011;39307;52.870;13.660;2023-02-13T08:52:08;10.05;;;6.40;;
53411;SDS011;39307;52.870;13.660;2023-02-13T08:54:34;9.32;;;6.50;;
53411;SDS011;39307;52.870;13.660;2023-02-13T08:57:00;10.85;;;6.55;;
53411;SDS011;39307;52.870;13.660;2023-02-13T08:59:27;10.18;;;6.90;;
53411;SDS011;39307;52.870;13.660;2023-02-13T09:01:53;10.60;;;7.10;;
53411;SDS011;39307;52.870;13.660;2023-02-13T09:04:19;11.02;;;7.35;;
53411;SDS011;39307;52.870;13.660;2023-02-13T09:06:45;12.13;;;7.40;;
53411;SDS011;39307;52.870;13.660;2023-02-13T09:09:11;11.30;;;7.53;;
53411;SDS011;39307;52.870;13.660;2023-02-13T09:11:37;11.00;;;7.80;;
53411;SDS011;39307;52.870;13.660;2023-02-13T09:14:04;10.40;;;7.05;;
53411;SDS011;39307;52.870;13.660;2023-02-13T09:16:30;13.77;;;8.80;;
53411;SDS011;39307;52.870;13.660;2023-02-13T09:18:56;14.40;;;9.07;;
53411;SDS011;39307;52.870;13.660;2023-02-13T09:21:22;12.13;;;8.57;;
53411;SDS011;39307;52.870;13.660;2023-02-13T09:23:48;13.40;;;8.77;;
53411;SDS011;39307;52.870;13.660;2023-02-13T09:26:15;13.02;;;8.60;;
53411;SDS011;39307;52.870;13.660;2023-02-13T09:28:42;12.93;;;8.80;;
53411;SDS011;39307;52.870;13.660;2023-02-13T09:31:09;14.68;;;9.23;;
53411;SDS011;39307;52.870;13.660;2023-02-13T09:33:40;13.50;;;9.13;;
53411;SDS011;39307;52.870;13.660;2023-02-13T09:36:09;15.02;;;9.75;;
53411;SDS011;39307;52.870;13.660;2023-02-13T09:38:37;13.30;;;9.18;;
53411;SDS011;39307;52.870;13.660;2023-02-13T09:41:38;16.00;;;9.73;;
53411;SDS011;39307;52.870;13.660;2023-02-13T09:44:02;15.18;;;9.98;;
53411;SDS011;39307;52.870;13.660;2023-02-13T09:46:34;14.85;;;10.00;;
53411;SDS011;39307;52.870;13.660;2023-02-13T09:49:07;15.57;;;10.23;;
53411;SDS011;39307;52.870;13.660;2023-02-13T09:51:44;16.08;;;11.05;;
53411;SDS011;39307;52.870;13.660;2023-02-13T09:54:15;15.75;;;10.73;;
53411;SDS011;39307;52.870;13.660;2023-02-13T09:56:54;17.05;;;10.82;;
53411;SDS011;39307;52.870;13.660;2023-02-13T09:59:31;15.90;;;9.95;;
53411;SDS011;39307;52.870;13.660;2023-02-13T10:02:00;15.25;;;10.80;;
53411;SDS011;39307;52.870;13.660;2023-02-13T10:13:45;18.77;;;12.52;;
53411;SDS011;39307;52.870;13.660;2023-02-13T10:21:21;19.77;;;13.43;;
53411;SDS011;39307;52.870;13.660;2023-02-13T10:23:59;25.35;;;14.18;;
53411;SDS011;39307;52.870;13.660;2023-02-13T10:26:37;20.77;;;14.48;;
53411;SDS011;39307;52.870;13.660;2023-02-13T10:29:05;21.50;;;14.00;;
53411;SDS011;39307;52.870;13.660;2023-02-13T10:31:39;26.75;;;15.57;;
53411;SDS011;39307;52.870;13.660;2023-02-13T10:34:13;23.88;;;15.90;;
53411;SDS011;39307;52.870;13.660;2023-02-13T10:36:45;23.90;;;15.73;;
53411;SDS011;39307;52.870;13.660;2023-02-13T10:47:19;25.60;;;17.27;;
53411;SDS011;39307;52.870;13.660;2023-02-13T10:50:05;26.15;;;17.80;;
53411;SDS011;39307;52.870;13.660;2023-02-13T11:03:28;26.98;;;18.20;;
53411;SDS011;39307;52.870;13.660;2023-02-13T11:05:54;28.30;;;18.40;;
53411;SDS011;39307;52.870;13.660;2023-02-13T11:08:31;25.85;;;17.73;;
53411;SDS011;39307;52.870;13.660;2023-02-13T11:11:26;24.87;;;18.20;;
53411;SDS011;39307;52.870;13.660;2023-02-13T11:16:51;27.75;;;18.45;;
53411;SDS011;39307;52.870;13.660;2023-02-13T11:19:32;27.42;;;18.50;;
53411;SDS011;39307;52.870;13.660;2023-02-13T11:22:09;28.20;;;19.05;;
53411;SDS011;39307;52.870;13.660;2023-02-13T11:24:39;25.20;;;17.40;;
53411;SDS011;39307;52.870;13.660;2023-02-13T11:27:08;23.90;;;16.60;;
53411;SDS011;39307;52.870;13.660;2023-02-13T11:29:36;24.17;;;16.92;;
53411;SDS011;39307;52.870;13.660;2023-02-13T11:34:47;22.67;;;15.93;;
53411;SDS011;39307;52.870;13.660;2023-02-13T11:37:18;25.10;;;15.90;;
53411;SDS011;39307;52.870;13.660;2023-02-13T11:39:48;23.58;;;15.75;;
53411;SDS011;39307;52.870;13.660;2023-02-13T11:42:17;21.02;;;14.90;;
53411;SDS011;39307;52.870;13.660;2023-02-13T11:45:00;20.15;;;14.38;;
53411;SDS011;39307;52.870;13.660;2023-02-13T11:47:32;20.48;;;15.38;;
53411;SDS011;39307;52.870;13.660;2023-02-13T11:50:02;19.40;;;13.90;;
53411;SDS011;39307;52.870;13.660;2023-02-13T11:52:33;19.75;;;13.93;;
53411;SDS011;39307;52.870;13.660;2023-02-13T11:55:01;19.47;;;13.83;;
53411;SDS011;39307;52.870;13.660;2023-02-13T11:57:54;19.35;;;13.38;;
53411;SDS011;39307;52.870;13.660;2023-02-13T12:00:37;18.88;;;13.52;;
53411;SDS011;39307;52.870;13.660;2023-02-13T12:06:01;20.02;;;14.50;;
53411;SDS011;39307;52.870;13.660;2023-02-13T12:08:29;18.92;;;13.70;;
53411;SDS011;39307;52.870;13.660;2023-02-13T12:10:57;21.63;;;13.93;;
53411;SDS011;39307;52.870;13.660;2023-02-13T12:13:27;20.02;;;14.00;;
53411;SDS011;39307;52.870;13.660;2023-02-13T12:16:11;17.42;;;13.10;;
53411;SDS011;39307;52.870;13.660;2023-02-13T12:18:45;17.52;;;13.05;;
53411;SDS011;39307;52.870;13.660;2023-02-13T12:27:33;17.05;;;12.55;;
53411;SDS011;39307;52.870;13.660;2023-02-13T12:30:15;16.88;;;12.30;;
53411;SDS011;39307;52.870;13.660;2023-02-13T12:38:14;18.75;;;13.23;;
53411;SDS011;39307;52.870;13.660;2023-02-13T12:41:10;17.20;;;12.63;;
53411;SDS011;39307;52.870;13.660;2023-02-13T12:44:01;16.63;;;12.35;;
53411;SDS011;39307;52.870;13.660;2023-02-13T12:49:57;16.00;;;11.20;;
53411;SDS011;39307;52.870;13.660;2023-02-13T12:55:36;16.08;;;11.35;;
53411;SDS011;39307;52.870;13.660;2023-02-13T13:01:23;15.07;;;11.32;;
53411;SDS011;39307;52.870;13.660;2023-02-13T13:17:24;13.70;;;9.33;;
53411;SDS011;39307;52.870;13.660;2023-02-13T13:27:26;14.27;;;9.87;;
53411;SDS011;39307;52.870;13.660;2023-02-13T13:30:04;12.63;;;8.95;;
53411;SDS011;39307;52.870;13.660;2023-02-13T13:32:40;11.77;;;8.15;;
53411;SDS011;39307;52.870;13.660;2023-02-13T13:35:14;14.07;;;8.93;;
53411;SDS011;39307;52.870;13.660;2023-02-13T13:37:46;12.97;;;9.07;;
53411;SDS011;39307;52.870;13.660;2023-02-13T13:40:45;11.43;;;8.48;;
53411;SDS011;39307;52.870;13.660;2023-02-13T13:43:24;13.68;;;8.75;;
53411;SDS011;39307;52.870;13.660;2023-02-13T13:46:26;12.18;;;8.68;;
53411;SDS011;39307;52.870;13.660;2023-02-13T13:52:17;12.87;;;8.93;;
53411;SDS011;39307;52.870;13.660;2023-02-13T13:54:44;13.50;;;9.63;;
53411;SDS011;39307;52.870;13.660;2023-02-13T13:57:11;14.60;;;9.50;;
53411;SDS011;39307;52.870;13.660;2023-02-13T14:07:47;14.10;;;9.80;;
53411;SDS011;39307;52.870;13.660;2023-02-13T14:16:05;13.13;;;9.63;;
53411;SDS011;39307;52.870;13.660;2023-02-13T14:23:16;13.63;;;9.93;;
53411;SDS011;39307;52.870;13.660;2023-02-13T14:25:43;13.55;;;9.85;;
53411;SDS011;39307;52.870;13.660;2023-02-13T14:30:44;13.70;;;10.63;;
53411;SDS011;39307;52.870;13.660;2023-02-13T14:33:21;13.43;;;10.47;;
53411;SDS011;39307;52.870;13.660;2023-02-13T14:35:59;14.27;;;10.50;;
53411;SDS011;39307;52.870;13.660;2023-02-13T14:38:53;13.90;;;9.98;;
53411;SDS011;39307;52.870;13.660;2023-02-13T14:44:15;15.27;;;10.55;;
53411;SDS011;39307;52.870;13.660;2023-02-13T14:47:05;13.27;;;10.20;;
53411;SDS011;39307;52.870;13.660;2023-02-13T14:49:58;14.30;;;10.20;;
53411;SDS011;39307;52.870;13.660;2023-02-13T14:52:31;13.43;;;10.07;;
53411;SDS011;39307;52.870;13.660;2023-02-13T14:55:03;12.43;;;9.32;;
53411;SDS011;39307;52.870;13.660;2023-02-13T14:57:37;15.02;;;10.07;;
53411;SDS011;39307;52.870;13.660;2023-02-13T15:00:22;12.93;;;9.50;;
53411;SDS011;39307;52.870;13.660;2023-02-13T15:02:54;13.85;;;9.82;;
53411;SDS011;39307;52.870;13.660;2023-02-13T15:05:33;14.77;;;10.15;;
53411;SDS011;39307;52.870;13.660;2023-02-13T15:08:13;13.85;;;9.70;;
53411;SDS011;39307;52.870;13.660;2023-02-13T15:10:47;13.25;;;10.02;;
53411;SDS011;39307;52.870;13.660;2023-02-13T15:13:17;13.73;;;10.55;;
53411;SDS011;39307;52.870;13.660;2023-02-13T15:15:58;14.60;;;10.33;;
53411;SDS011;39307;52.870;13.660;2023-02-13T15:18:52;14.13;;;10.35;;
53411;SDS011;39307;52.870;13.660;2023-02-13T15:21:18;14.55;;;10.57;;
53411;SDS011;39307;52.870;13.660;2023-02-13T15:23:51;14.55;;;10.77;;
53411;SDS011;39307;52.870;13.660;2023-02-13T15:26:21;14.13;;;10.85;;
53411;SDS011;39307;52.870;13.660;2023-02-13T15:28:58;15.57;;;10.88;;
53411;SDS011;39307;52.870;13.660;2023-02-13T15:31:28;14.82;;;10.88;;
53411;SDS011;39307;52.870;13.660;2023-02-13T15:33:57;14.45;;;10.35;;
53411;SDS011;39307;52.870;13.660;2023-02-13T15:36:24;15.55;;;10.48;;
53411;SDS011;39307;52.870;13.660;2023-02-13T15:38:59;14.32;;;10.80;;
53411;SDS011;39307;52.870;13.660;2023-02-13T15:41:28;15.13;;;11.02;;
53411;SDS011;39307;52.870;13.660;2023-02-13T15:44:00;15.38;;;11.48;;
53411;SDS011;39307;52.870;13.660;2023-02-13T15:46:30;14.00;;;11.23;;
53411;SDS011;39307;52.870;13.660;2023-02-13T15:49:08;16.35;;;12.15;;
53411;SDS011;39307;52.870;13.660;2023-02-13T15:51:42;15.18;;;11.20;;
53411;SDS011;39307;52.870;13.660;2023-02-13T15:54:22;15.60;;;11.07;;
53411;SDS011;39307;52.870;13.660;2023-02-13T15:56:50;15.50;;;10.77;;
53411;SDS011;39307;52.870;13.660;2023-02-13T15:59:19;15.85;;;11.30;;
53411;SDS011;39307;52.870;13.660;2023-02-13T16:01:46;16.02;;;11.82;;
53411;SDS011;39307;52.870;13.660;2023-02-13T16:04:13;15.05;;;11.20;;
53411;SDS011;39307;52.870;13.660;2023-02-13T16:06:42;18.10;;;14.18;;
53411;SDS011;39307;52.870;13.660;2023-02-13T16:09:25;16.48;;;12.25;;
53411;SDS011;39307;52.870;13.660;2023-02-13T16:11:58;14.95;;;11.45;;
53411;SDS011;39307;52.870;13.660;2023-02-13T16:14:30;16.17;;;12.15;;
53411;SDS011;39307;52.870;13.660;2023-02-13T16:17:11;16.35;;;11.82;;
53411;SDS011;39307;52.870;13.660;2023-02-13T16:19:53;15.48;;;11.60;;
53411;SDS011;39307;52.870;13.660;2023-02-13T16:22:33;17.25;;;13.02;;
53411;SDS011;39307;52.870;13.660;2023-02-13T16:27:42;18.73;;;13.63;;
53411;SDS011;39307;52.870;13.660;2023-02-13T16:30:28;18.70;;;13.05;;
53411;SDS011;39307;52.870;13.660;2023-02-13T16:35:42;18.10;;;13.30;;
53411;SDS011;39307;52.870;13.660;2023-02-13T16:38:27;17.73;;;13.00;;
53411;SDS011;39307;52.870;13.660;2023-02-13T16:40:58;18.63;;;13.10;;
53411;SDS011;39307;52.870;13.660;2023-02-13T16:49:12;18.58;;;12.80;;
53411;SDS011;39307;52.870;13.660;2023-02-13T16:51:36;17.52;;;12.45;;
53411;SDS011;39307;52.870;13.660;2023-02-13T17:02:09;15.52;;;11.57;;
53411;SDS011;39307;52.870;13.660;2023-02-13T17:04:56;17.17;;;12.38;;
53411;SDS011;39307;52.870;13.660;2023-02-13T17:07:28;19.88;;;13.40;;
53411;SDS011;39307;52.870;13.660;2023-02-13T17:09:59;20.15;;;13.93;;
53411;SDS011;39307;52.870;13.660;2023-02-13T17:12:30;17.27;;;12.68;;
53411;SDS011;39307;52.870;13.660;2023-02-13T17:15:01;17.77;;;12.83;;
53411;SDS011;39307;52.870;13.660;2023-02-13T17:17:28;18.55;;;12.98;;
53411;SDS011;39307;52.870;13.660;2023-02-13T17:19:55;23.30;;;13.80;;
53411;SDS011;39307;52.870;13.660;2023-02-13T17:25:03;20.67;;;14.90;;
53411;SDS011;39307;52.870;13.660;2023-02-13T17:27:34;24.93;;;17.70;;
53411;SDS011;39307;52.870;13.660;2023-02-13T17:30:00;25.90;;;18.55;;